sensor_id;sensor_type;location;lat;lon;timestamp;P1;durP1;ratioP1;P2;durP2;ratioP2
10880;SDS011;5493;48.884;8.338;2023-03-14T00:01:28;1.20;;;0.80;;
10880;SDS011;5493;48.884;8.338;2023-03-14T00:03:54;2.97;;;1.20;;
10880;SDS011;5493;48.884;8.338;2023-03-14T00:06:21;4.80;;;2.00;;
10880;SDS011;5493;48.884;8.338;2023-03-14T00:08:48;2.33;;;0.87;;
10880;SDS011;5493;48.884;8.338;2023-03-14T00:11:17;1.67;;;0.97;;
10880;SDS011;5493;48.884;8.338;2023-03-14T00:13:47;1.33;;;0.67;;
10880;SDS011;5493;48.884;8.338;2023-03-14T00:16:14;0.83;;;0.53;;
10880;SDS011;5493;48.884;8.338;2023-03-14T00:18:41;1.13;;;0.40;;
10880;SDS011;5493;48.884;8.338;2023-03-14T00:21:08;4.33;;;1.03;;
10880;SDS011;5493;48.884;8.338;2023-03-14T00:23:36;2.73;;;0.90;;
10880;SDS011;5493;48.884;8.338;2023-03-14T00:26:04;0.83;;;0.63;;
10880;SDS011;5493;48.884;8.338;2023-03-14T00:28:33;1.63;;;0.57;;
10880;SDS011;5493;48.884;8.338;2023-03-14T00:31:03;0.50;;;0.50;;
10880;SDS011;5493;48.884;8.338;2023-03-14T00:33:30;2.00;;;0.67;;
10880;SDS011;5493;48.884;8.338;2023-03-14T00:35:58;1.03;;;0.63;;
10880;SDS011;5493;48.884;8.338;2023-03-14T00:38:26;1.10;;;0.60;;
10880;SDS011;5493;48.884;8.338;2023-03-14T00:40:53;1.40;;;0.83;;
10880;SDS011;5493;48.884;8.338;2023-03-14T00:43:20;0.60;;;0.40;;
10880;SDS011;5493;48.884;8.338;2023-03-14T00:45:47;0.53;;;0.47;;
10880;SDS011;5493;48.884;8.338;2023-03-14T00:48:15;0.30;;;0.20;;
10880;SDS011;5493;48.884;8.338;2023-03-14T00:50:42;0.27;;;0.23;;
10880;SDS011;5493;48.884;8.338;2023-03-14T00:53:08;1.80;;;0.43;;
10880;SDS011;5493;48.884;8.338;2023-03-14T00:55:36;0.40;;;0.40;;
10880;SDS011;5493;48.884;8.338;2023-03-14T00:58:03;1.20;;;0.57;;
10880;SDS011;5493;48.884;8.338;2023-03-14T01:00:29;0.40;;;0.20;;
10880;SDS011;5493;48.884;8.338;2023-03-14T01:02:56;0.73;;;0.40;;
10880;SDS011;5493;48.884;8.338;2023-03-14T01:05:24;2.40;;;0.77;;
10880;SDS011;5493;48.884;8.338;2023-03-14T01:07:51;1.03;;;0.40;;
10880;SDS011;5493;48.884;8.338;2023-03-14T01:10:17;0.20;;;0.20;;
10880;SDS011;5493;48.884;8.338;2023-03-14T01:12:44;0.30;;;0.30;;
10880;SDS011;5493;48.884;8.338;2023-03-14T01:15:10;0.47;;;0.30;;
10880;SDS011;5493;48.884;8.338;2023-03-14T01:17:37;0.73;;;0.40;;
10880;SDS011;5493;48.884;8.338;2023-03-14T01:20:04;0.57;;;0.57;;
10880;SDS011;5493;48.884;8.338;2023-03-14T01:22:35;1.33;;;0.47;;
10880;SDS011;5493;48.884;8.338;2023-03-14T01:25:03;0.70;;;0.27;;
10880;SDS011;5493;48.884;8.338;2023-03-14T01:27:31;0.50;;;0.43;;
10880;SDS011;5493;48.884;8.338;2023-03-14T01:29:58;1.27;;;0.30;;
10880;SDS011;5493;48.884;8.338;2023-03-14T01:32:24;1.10;;;0.60;;
10880;SDS011;5493;48.884;8.338;2023-03-14T01:34:51;2.20;;;0.50;;
10880;SDS011;5493;48.884;8.338;2023-03-14T01:37:18;1.17;;;0.60;;
10880;SDS011;5493;48.884;8.338;2023-03-14T01:39:47;1.40;;;0.70;;
10880;SDS011;5493;48.884;8.338;2023-03-14T01:42:14;1.60;;;0.47;;
10880;SDS011;5493;48.884;8.338;2023-03-14T01:44:51;0.40;;;0.40;;
10880;SDS011;5493;48.884;8.338;2023-03-14T01:47:19;0.53;;;0.33;;
10880;SDS011;5493;48.884;8.338;2023-03-14T01:49:47;0.80;;;0.33;;
10880;SDS011;5493;48.884;8.338;2023-03-14T01:52:17;0.43;;;0.43;;
10880;SDS011;5493;48.884;8.338;2023-03-14T01:54:48;0.10;;;0.03;;
10880;SDS011;5493;48.884;8.338;2023-03-14T01:57:18;0.30;;;0.30;;
10880;SDS011;5493;48.884;8.338;2023-03-14T01:59:48;0.60;;;0.40;;
10880;SDS011;5493;48.884;8.338;2023-03-14T02:02:18;1.17;;;0.60;;
10880;SDS011;5493;48.884;8.338;2023-03-14T02:04:45;1.47;;;0.50;;
10880;SDS011;5493;48.884;8.338;2023-03-14T02:07:13;0.57;;;0.30;;
10880;SDS011;5493;48.884;8.338;2023-03-14T02:09:43;2.00;;;0.30;;
10880;SDS011;5493;48.884;8.338;2023-03-14T02:12:13;0.50;;;0.30;;
10880;SDS011;5493;48.884;8.338;2023-03-14T02:14:42;2.00;;;0.43;;
10880;SDS011;5493;48.884;8.338;2023-03-14T02:17:13;0.37;;;0.37;;
10880;SDS011;5493;48.884;8.338;2023-03-14T02:19:46;0.73;;;0.43;;
10880;SDS011;5493;48.884;8.338;2023-03-14T02:22:20;1.20;;;0.40;;
10880;SDS011;5493;48.884;8.338;2023-03-14T02:24:49;0.20;;;0.20;;
10880;SDS011;5493;48.884;8.338;2023-03-14T02:27:24;1.13;;;0.40;;
10880;SDS011;5493;48.884;8.338;2023-03-14T02:29:52;0.73;;;0.30;;
10880;SDS011;5493;48.884;8.338;2023-03-14T02:32:22;0.50;;;0.30;;
10880;SDS011;5493;48.884;8.338;2023-03-14T02:34:52;0.30;;;0.30;;
10880;SDS011;5493;48.884;8.338;2023-03-14T02:37:21;0.33;;;0.33;;
10880;SDS011;5493;48.884;8.338;2023-03-14T02:39:50;1.73;;;0.70;;
10880;SDS011;5493;48.884;8.338;2023-03-14T02:42:17;0.80;;;0.30;;
10880;SDS011;5493;48.884;8.338;2023-03-14T02:44:49;1.90;;;0.60;;
10880;SDS011;5493;48.884;8.338;2023-03-14T02:47:18;2.00;;;0.83;;
10880;SDS011;5493;48.884;8.338;2023-03-14T02:49:48;2.30;;;0.80;;
10880;SDS011;5493;48.884;8.338;2023-03-14T02:52:16;1.43;;;0.43;;
10880;SDS011;5493;48.884;8.338;2023-03-14T02:54:42;0.93;;;0.50;;
10880;SDS011;5493;48.884;8.338;2023-03-14T02:57:09;0.97;;;0.30;;
10880;SDS011;5493;48.884;8.338;2023-03-14T02:59:35;0.60;;;0.50;;
10880;SDS011;5493;48.884;8.338;2023-03-14T03:02:03;1.70;;;0.70;;
10880;SDS011;5493;48.884;8.338;2023-03-14T03:04:30;0.47;;;0.30;;
10880;SDS011;5493;48.884;8.338;2023-03-14T03:06:56;1.13;;;0.57;;
10880;SDS011;5493;48.884;8.338;2023-03-14T03:09:23;2.00;;;0.40;;
10880;SDS011;5493;48.884;8.338;2023-03-14T03:11:49;1.27;;;0.70;;
10880;SDS011;5493;48.884;8.338;2023-03-14T03:14:16;1.87;;;0.50;;
10880;SDS011;5493;48.884;8.338;2023-03-14T03:16:42;0.53;;;0.40;;
10880;SDS011;5493;48.884;8.338;2023-03-14T03:19:10;2.70;;;0.63;;
10880;SDS011;5493;48.884;8.338;2023-03-14T03:21:38;2.37;;;0.77;;
10880;SDS011;5493;48.884;8.338;2023-03-14T03:24:05;1.10;;;0.60;;
10880;SDS011;5493;48.884;8.338;2023-03-14T03:26:32;0.57;;;0.30;;
10880;SDS011;5493;48.884;8.338;2023-03-14T03:28:59;1.30;;;0.47;;
10880;SDS011;5493;48.884;8.338;2023-03-14T03:31:26;3.67;;;0.70;;
10880;SDS011;5493;48.884;8.338;2023-03-14T03:33:52;1.50;;;0.60;;
10880;SDS011;5493;48.884;8.338;2023-03-14T03:36:21;1.27;;;0.40;;
10880;SDS011;5493;48.884;8.338;2023-03-14T03:38:48;5.17;;;1.10;;
10880;SDS011;5493;48.884;8.338;2023-03-14T03:41:15;2.77;;;0.97;;
10880;SDS011;5493;48.884;8.338;2023-03-14T03:43:42;1.27;;;0.50;;
10880;SDS011;5493;48.884;8.338;2023-03-14T03:46:08;0.70;;;0.40;;
10880;SDS011;5493;48.884;8.338;2023-03-14T03:48:35;0.27;;;0.20;;
10880;SDS011;5493;48.884;8.338;2023-03-14T03:51:02;0.57;;;0.27;;
10880;SDS011;5493;48.884;8.338;2023-03-14T03:53:30;3.47;;;0.50;;
10880;SDS011;5493;48.884;8.338;2023-03-14T03:55:57;1.67;;;0.70;;
10880;SDS011;5493;48.884;8.338;2023-03-14T03:58:23;3.20;;;0.77;;
10880;SDS011;5493;48.884;8.338;2023-03-14T04:00:50;3.33;;;0.73;;
10880;SDS011;5493;48.884;8.338;2023-03-14T04:03:16;1.90;;;0.80;;
10880;SDS011;5493;48.884;8.338;2023-03-14T04:05:43;2.23;;;0.33;;
10880;SDS011;5493;48.884;8.338;2023-03-14T04:08:09;1.97;;;0.47;;
10880;SDS011;5493;48.884;8.338;2023-03-14T04:10:37;2.37;;;0.73;;
10880;SDS011;5493;48.884;8.338;2023-03-14T04:13:04;2.00;;;0.57;;
10880;SDS011;5493;48.884;8.338;2023-03-14T04:15:30;1.17;;;0.50;;
10880;SDS011;5493;48.884;8.338;2023-03-14T04:17:57;0.97;;;0.60;;
10880;SDS011;5493;48.884;8.338;2023-03-14T04:20:24;2.00;;;0.67;;
10880;SDS011;5493;48.884;8.338;2023-03-14T04:22:50;2.47;;;0.67;;
10880;SDS011;5493;48.884;8.338;2023-03-14T04:25:17;1.90;;;0.40;;
10880;SDS011;5493;48.884;8.338;2023-03-14T04:27:46;3.73;;;0.70;;
10880;SDS011;5493;48.884;8.338;2023-03-14T04:30:13;2.63;;;0.63;;
10880;SDS011;5493;48.884;8.338;2023-03-14T04:32:39;1.50;;;0.50;;
10880;SDS011;5493;48.884;8.338;2023-03-14T04:35:06;1.53;;;0.40;;
10880;SDS011;5493;48.884;8.338;2023-03-14T04:37:33;1.27;;;0.53;;
10880;SDS011;5493;48.884;8.338;2023-03-14T04:40:00;3.47;;;1.00;;
10880;SDS011;5493;48.884;8.338;2023-03-14T04:42:29;3.13;;;0.80;;
10880;SDS011;5493;48.884;8.338;2023-03-14T04:44:58;1.00;;;0.80;;
10880;SDS011;5493;48.884;8.338;2023-03-14T04:47:25;4.20;;;0.97;;
10880;SDS011;5493;48.884;8.338;2023-03-14T04:49:52;2.40;;;1.00;;
10880;SDS011;5493;48.884;8.338;2023-03-14T04:52:18;1.27;;;0.30;;
10880;SDS011;5493;48.884;8.338;2023-03-14T04:54:45;0.70;;;0.40;;
10880;SDS011;5493;48.884;8.338;2023-03-14T04:57:11;1.50;;;0.57;;
10880;SDS011;5493;48.884;8.338;2023-03-14T04:59:38;0.93;;;0.43;;
10880;SDS011;5493;48.884;8.338;2023-03-14T05:02:06;0.93;;;0.40;;
10880;SDS011;5493;48.884;8.338;2023-03-14T05:04:32;1.50;;;0.67;;
10880;SDS011;5493;48.884;8.338;2023-03-14T05:06:59;1.27;;;0.40;;
10880;SDS011;5493;48.884;8.338;2023-03-14T05:09:25;1.07;;;0.40;;
10880;SDS011;5493;48.884;8.338;2023-03-14T05:11:52;1.53;;;0.50;;
10880;SDS011;5493;48.884;8.338;2023-03-14T05:14:19;0.20;;;0.17;;
10880;SDS011;5493;48.884;8.338;2023-03-14T05:16:45;0.83;;;0.27;;
10880;SDS011;5493;48.884;8.338;2023-03-14T05:19:15;0.43;;;0.23;;
10880;SDS011;5493;48.884;8.338;2023-03-14T05:21:41;0.73;;;0.30;;
10880;SDS011;5493;48.884;8.338;2023-03-14T05:24:08;0.50;;;0.13;;
10880;SDS011;5493;48.884;8.338;2023-03-14T05:26:34;1.13;;;0.60;;
10880;SDS011;5493;48.884;8.338;2023-03-14T05:29:01;1.03;;;0.60;;
10880;SDS011;5493;48.884;8.338;2023-03-14T05:31:28;1.17;;;0.60;;
10880;SDS011;5493;48.884;8.338;2023-03-14T05:33:54;0.10;;;0.10;;
10880;SDS011;5493;48.884;8.338;2023-03-14T05:36:22;0.73;;;0.33;;
10880;SDS011;5493;48.884;8.338;2023-03-14T05:38:48;0.60;;;0.40;;
10880;SDS011;5493;48.884;8.338;2023-03-14T05:41:15;2.57;;;0.50;;
10880;SDS011;5493;48.884;8.338;2023-03-14T05:43:41;2.00;;;0.90;;
10880;SDS011;5493;48.884;8.338;2023-03-14T05:46:08;1.00;;;0.50;;
10880;SDS011;5493;48.884;8.338;2023-03-14T05:48:34;1.83;;;0.90;;
10880;SDS011;5493;48.884;8.338;2023-03-14T05:51:01;2.43;;;1.37;;
10880;SDS011;5493;48.884;8.338;2023-03-14T05:53:29;1.03;;;0.57;;
10880;SDS011;5493;48.884;8.338;2023-03-14T05:55:56;2.93;;;1.27;;
10880;SDS011;5493;48.884;8.338;2023-03-14T05:58:22;0.90;;;0.70;;
10880;SDS011;5493;48.884;8.338;2023-03-14T06:00:49;2.80;;;1.10;;
10880;SDS011;5493;48.884;8.338;2023-03-14T06:03:16;1.50;;;1.00;;
10880;SDS011;5493;48.884;8.338;2023-03-14T06:05:42;1.03;;;0.87;;
10880;SDS011;5493;48.884;8.338;2023-03-14T06:08:09;2.13;;;1.10;;
10880;SDS011;5493;48.884;8.338;2023-03-14T06:10:37;2.80;;;1.17;;
10880;SDS011;5493;48.884;8.338;2023-03-14T06:13:04;2.20;;;1.40;;
10880;SDS011;5493;48.884;8.338;2023-03-14T06:15:30;1.63;;;1.23;;
10880;SDS011;5493;48.884;8.338;2023-03-14T06:17:58;3.57;;;0.97;;
10880;SDS011;5493;48.884;8.338;2023-03-14T06:20:24;1.73;;;0.80;;
10880;SDS011;5493;48.884;8.338;2023-03-14T06:22:51;1.30;;;0.60;;
10880;SDS011;5493;48.884;8.338;2023-03-14T06:25:17;3.97;;;0.73;;
10880;SDS011;5493;48.884;8.338;2023-03-14T06:27:45;2.50;;;1.20;;
10880;SDS011;5493;48.884;8.338;2023-03-14T06:30:12;1.57;;;0.90;;
10880;SDS011;5493;48.884;8.338;2023-03-14T06:32:39;2.37;;;1.03;;
10880;SDS011;5493;48.884;8.338;2023-03-14T06:35:05;1.47;;;0.70;;
10880;SDS011;5493;48.884;8.338;2023-03-14T06:37:33;2.00;;;0.63;;
10880;SDS011;5493;48.884;8.338;2023-03-14T06:39:59;1.40;;;0.70;;
10880;SDS011;5493;48.884;8.338;2023-03-14T06:42:26;1.93;;;0.73;;
10880;SDS011;5493;48.884;8.338;2023-03-14T06:44:54;0.67;;;0.43;;
10880;SDS011;5493;48.884;8.338;2023-03-14T06:47:20;0.53;;;0.40;;
10880;SDS011;5493;48.884;8.338;2023-03-14T06:49:47;1.53;;;0.60;;
10880;SDS011;5493;48.884;8.338;2023-03-14T06:52:13;2.63;;;0.97;;
10880;SDS011;5493;48.884;8.338;2023-03-14T06:54:40;2.43;;;1.03;;
10880;SDS011;5493;48.884;8.338;2023-03-14T06:57:06;2.47;;;1.10;;
10880;SDS011;5493;48.884;8.338;2023-03-14T06:59:33;1.47;;;0.77;;
10880;SDS011;5493;48.884;8.338;2023-03-14T07:02:01;0.37;;;0.30;;
10880;SDS011;5493;48.884;8.338;2023-03-14T07:04:27;0.83;;;0.50;;
10880;SDS011;5493;48.884;8.338;2023-03-14T07:06:54;2.77;;;0.80;;
10880;SDS011;5493;48.884;8.338;2023-03-14T07:09:20;1.40;;;0.70;;
10880;SDS011;5493;48.884;8.338;2023-03-14T07:11:47;1.50;;;0.57;;
10880;SDS011;5493;48.884;8.338;2023-03-14T07:14:13;0.80;;;0.60;;
10880;SDS011;5493;48.884;8.338;2023-03-14T07:16:39;0.50;;;0.40;;
10880;SDS011;5493;48.884;8.338;2023-03-14T07:19:07;0.50;;;0.50;;
10880;SDS011;5493;48.884;8.338;2023-03-14T07:21:34;2.57;;;0.90;;
10880;SDS011;5493;48.884;8.338;2023-03-14T07:24:00;1.97;;;1.00;;
10880;SDS011;5493;48.884;8.338;2023-03-14T07:26:27;0.83;;;0.57;;
10880;SDS011;5493;48.884;8.338;2023-03-14T07:28:54;1.03;;;0.63;;
10880;SDS011;5493;48.884;8.338;2023-03-14T07:31:20;1.57;;;0.40;;
10880;SDS011;5493;48.884;8.338;2023-03-14T07:33:47;2.10;;;1.07;;
10880;SDS011;5493;48.884;8.338;2023-03-14T07:36:14;0.80;;;0.60;;
10880;SDS011;5493;48.884;8.338;2023-03-14T07:38:41;0.87;;;0.43;;
10880;SDS011;5493;48.884;8.338;2023-03-14T07:41:09;1.60;;;0.90;;
10880;SDS011;5493;48.884;8.338;2023-03-14T07:43:35;1.10;;;0.80;;
10880;SDS011;5493;48.884;8.338;2023-03-14T07:46:02;0.33;;;0.33;;
10880;SDS011;5493;48.884;8.338;2023-03-14T07:48:28;1.00;;;0.30;;
10880;SDS011;5493;48.884;8.338;2023-03-14T07:50:55;3.43;;;0.70;;
10880;SDS011;5493;48.884;8.338;2023-03-14T07:53:23;1.60;;;0.77;;
10880;SDS011;5493;48.884;8.338;2023-03-14T07:55:51;0.50;;;0.37;;
10880;SDS011;5493;48.884;8.338;2023-03-14T07:58:18;1.23;;;0.53;;
10880;SDS011;5493;48.884;8.338;2023-03-14T08:00:46;1.57;;;0.80;;
10880;SDS011;5493;48.884;8.338;2023-03-14T08:03:13;1.33;;;0.80;;
10880;SDS011;5493;48.884;8.338;2023-03-14T08:05:40;4.90;;;0.77;;
10880;SDS011;5493;48.884;8.338;2023-03-14T08:08:07;1.70;;;0.63;;
10880;SDS011;5493;48.884;8.338;2023-03-14T08:10:35;0.70;;;0.60;;
10880;SDS011;5493;48.884;8.338;2023-03-14T08:13:01;0.80;;;0.60;;
10880;SDS011;5493;48.884;8.338;2023-03-14T08:15:29;0.60;;;0.33;;
10880;SDS011;5493;48.884;8.338;2023-03-14T08:17:56;1.60;;;0.40;;
10880;SDS011;5493;48.884;8.338;2023-03-14T08:20:24;1.30;;;0.77;;
10880;SDS011;5493;48.884;8.338;2023-03-14T08:22:53;2.20;;;0.70;;
10880;SDS011;5493;48.884;8.338;2023-03-14T08:25:21;0.30;;;0.30;;
10880;SDS011;5493;48.884;8.338;2023-03-14T08:27:49;0.83;;;0.47;;
10880;SDS011;5493;48.884;8.338;2023-03-14T08:30:16;0.70;;;0.43;;
10880;SDS011;5493;48.884;8.338;2023-03-14T08:32:44;2.83;;;0.80;;
10880;SDS011;5493;48.884;8.338;2023-03-14T08:35:11;1.20;;;0.90;;
10880;SDS011;5493;48.884;8.338;2023-03-14T08:37:38;0.87;;;0.60;;
10880;SDS011;5493;48.884;8.338;2023-03-14T08:40:06;2.57;;;0.87;;
10880;SDS011;5493;48.884;8.338;2023-03-14T08:42:35;1.00;;;0.60;;
10880;SDS011;5493;48.884;8.338;2023-03-14T08:45:03;0.50;;;0.50;;
10880;SDS011;5493;48.884;8.338;2023-03-14T08:47:31;0.60;;;0.60;;
10880;SDS011;5493;48.884;8.338;2023-03-14T08:49:57;0.67;;;0.30;;
10880;SDS011;5493;48.884;8.338;2023-03-14T08:52:24;0.80;;;0.50;;
10880;SDS011;5493;48.884;8.338;2023-03-14T08:54:50;0.97;;;0.47;;
10880;SDS011;5493;48.884;8.338;2023-03-14T08:57:17;0.30;;;0.30;;
10880;SDS011;5493;48.884;8.338;2023-03-14T08:59:44;1.77;;;0.57;;
10880;SDS011;5493;48.884;8.338;2023-03-14T09:02:11;0.70;;;0.53;;
10880;SDS011;5493;48.884;8.338;2023-03-14T09:04:38;0.20;;;0.20;;
10880;SDS011;5493;48.884;8.338;2023-03-14T09:07:05;1.17;;;0.50;;
10880;SDS011;5493;48.884;8.338;2023-03-14T09:09:31;0.87;;;0.60;;
10880;SDS011;5493;48.884;8.338;2023-03-14T09:11:58;0.50;;;0.30;;
10880;SDS011;5493;48.884;8.338;2023-03-14T09:14:25;0.97;;;0.27;;
10880;SDS011;5493;48.884;8.338;2023-03-14T09:16:51;3.30;;;0.50;;
10880;SDS011;5493;48.884;8.338;2023-03-14T09:19:19;0.30;;;0.30;;
10880;SDS011;5493;48.884;8.338;2023-03-14T09:21:46;4.03;;;0.70;;
10880;SDS011;5493;48.884;8.338;2023-03-14T09:24:12;0.37;;;0.20;;
10880;SDS011;5493;48.884;8.338;2023-03-14T09:26:39;0.30;;;0.30;;
10880;SDS011;5493;48.884;8.338;2023-03-14T09:29:05;0.20;;;0.20;;
10880;SDS011;5493;48.884;8.338;2023-03-14T09:31:32;0.97;;;0.30;;
10880;SDS011;5493;48.884;8.338;2023-03-14T09:33:59;0.70;;;0.30;;
10880;SDS011;5493;48.884;8.338;2023-03-14T09:36:27;2.50;;;1.07;;
10880;SDS011;5493;48.884;8.338;2023-03-14T09:38:53;0.47;;;0.30;;
10880;SDS011;5493;48.884;8.338;2023-03-14T09:41:21;0.93;;;0.60;;
10880;SDS011;5493;48.884;8.338;2023-03-14T09:43:53;0.47;;;0.30;;
10880;SDS011;5493;48.884;8.338;2023-03-14T09:46:27;0.80;;;0.63;;
10880;SDS011;5493;48.884;8.338;2023-03-14T09:48:55;1.30;;;0.67;;
10880;SDS011;5493;48.884;8.338;2023-03-14T09:51:21;0.27;;;0.23;;
10880;SDS011;5493;48.884;8.338;2023-03-14T09:53:50;0.63;;;0.27;;
10880;SDS011;5493;48.884;8.338;2023-03-14T09:56:18;1.30;;;0.40;;
10880;SDS011;5493;48.884;8.338;2023-03-14T09:58:48;0.50;;;0.50;;
10880;SDS011;5493;48.884;8.338;2023-03-14T10:01:18;1.07;;;0.80;;
10880;SDS011;5493;48.884;8.338;2023-03-14T10:03:48;0.30;;;0.30;;
10880;SDS011;5493;48.884;8.338;2023-03-14T10:06:18;0.80;;;0.50;;
10880;SDS011;5493;48.884;8.338;2023-03-14T10:08:45;0.30;;;0.30;;
10880;SDS011;5493;48.884;8.338;2023-03-14T10:11:15;1.37;;;0.60;;
10880;SDS011;5493;48.884;8.338;2023-03-14T10:13:50;1.23;;;0.60;;
10880;SDS011;5493;48.884;8.338;2023-03-14T10:16:29;0.60;;;0.60;;
10880;SDS011;5493;48.884;8.338;2023-03-14T10:19:01;2.40;;;1.40;;
10880;SDS011;5493;48.884;8.338;2023-03-14T10:21:29;0.80;;;0.60;;
10880;SDS011;5493;48.884;8.338;2023-03-14T10:24:07;1.00;;;0.80;;
10880;SDS011;5493;48.884;8.338;2023-03-14T10:26:45;1.43;;;0.90;;
10880;SDS011;5493;48.884;8.338;2023-03-14T10:29:14;2.07;;;1.00;;
10880;SDS011;5493;48.884;8.338;2023-03-14T10:31:49;0.63;;;0.50;;
10880;SDS011;5493;48.884;8.338;2023-03-14T10:34:21;0.90;;;0.60;;
10880;SDS011;5493;48.884;8.338;2023-03-14T10:36:51;2.17;;;0.40;;
10880;SDS011;5493;48.884;8.338;2023-03-14T10:39:30;0.60;;;0.60;;
10880;SDS011;5493;48.884;8.338;2023-03-14T10:42:11;0.60;;;0.60;;
10880;SDS011;5493;48.884;8.338;2023-03-14T10:44:41;0.93;;;0.77;;
10880;SDS011;5493;48.884;8.338;2023-03-14T10:47:14;1.50;;;1.07;;
10880;SDS011;5493;48.884;8.338;2023-03-14T10:49:44;0.93;;;0.73;;
10880;SDS011;5493;48.884;8.338;2023-03-14T10:52:17;1.30;;;0.70;;
10880;SDS011;5493;48.884;8.338;2023-03-14T10:54:48;0.50;;;0.50;;
10880;SDS011;5493;48.884;8.338;2023-03-14T10:57:18;0.87;;;0.57;;
10880;SDS011;5493;48.884;8.338;2023-03-14T10:59:46;1.90;;;1.03;;
10880;SDS011;5493;48.884;8.338;2023-03-14T11:02:25;0.97;;;0.87;;
10880;SDS011;5493;48.884;8.338;2023-03-14T11:05:11;1.53;;;1.00;;
10880;SDS011;5493;48.884;8.338;2023-03-14T11:07:47;1.60;;;0.67;;
10880;SDS011;5493;48.884;8.338;2023-03-14T11:10:16;0.70;;;0.60;;
10880;SDS011;5493;48.884;8.338;2023-03-14T11:12:52;2.53;;;0.80;;
10880;SDS011;5493;48.884;8.338;2023-03-14T11:15:41;1.77;;;1.03;;
10880;SDS011;5493;48.884;8.338;2023-03-14T11:19:03;0.37;;;0.30;;
10880;SDS011;5493;48.884;8.338;2023-03-14T11:21:40;0.30;;;0.27;;
10880;SDS011;5493;48.884;8.338;2023-03-14T11:24:14;0.70;;;0.53;;
10880;SDS011;5493;48.884;8.338;2023-03-14T11:26:59;0.40;;;0.40;;
10880;SDS011;5493;48.884;8.338;2023-03-14T11:29:33;0.60;;;0.40;;
10880;SDS011;5493;48.884;8.338;2023-03-14T11:32:10;0.47;;;0.43;;
10880;SDS011;5493;48.884;8.338;2023-03-14T11:34:40;0.20;;;0.20;;
10880;SDS011;5493;48.884;8.338;2023-03-14T11:37:14;0.30;;;0.20;;
10880;SDS011;5493;48.884;8.338;2023-03-14T11:39:45;0.20;;;0.20;;
10880;SDS011;5493;48.884;8.338;2023-03-14T11:42:21;1.10;;;0.17;;
10880;SDS011;5493;48.884;8.338;2023-03-14T11:44:50;0.20;;;0.20;;
10880;SDS011;5493;48.884;8.338;2023-03-14T11:47:17;0.93;;;0.47;;
10880;SDS011;5493;48.884;8.338;2023-03-14T11:49:50;0.40;;;0.33;;
10880;SDS011;5493;48.884;8.338;2023-03-14T11:52:20;1.10;;;0.37;;
10880;SDS011;5493;48.884;8.338;2023-03-14T11:54:52;0.73;;;0.50;;
10880;SDS011;5493;48.884;8.338;2023-03-14T11:57:22;0.80;;;0.60;;
10880;SDS011;5493;48.884;8.338;2023-03-14T11:59:52;0.67;;;0.50;;
10880;SDS011;5493;48.884;8.338;2023-03-14T12:02:25;0.70;;;0.50;;
10880;SDS011;5493;48.884;8.338;2023-03-14T12:10:59;6.03;;;3.17;;
10880;SDS011;5493;48.884;8.338;2023-03-14T12:13:28;3.20;;;1.90;;
10880;SDS011;5493;48.884;8.338;2023-03-14T12:16:03;9.13;;;3.83;;
10880;SDS011;5493;48.884;8.338;2023-03-14T12:18:32;4.63;;;2.50;;
10880;SDS011;5493;48.884;8.338;2023-03-14T12:21:03;3.53;;;2.07;;
10880;SDS011;5493;48.884;8.338;2023-03-14T12:23:34;3.10;;;1.80;;
10880;SDS011;5493;48.884;8.338;2023-03-14T12:26:07;4.20;;;2.33;;
10880;SDS011;5493;48.884;8.338;2023-03-14T12:28:48;4.67;;;2.60;;
10880;SDS011;5493;48.884;8.338;2023-03-14T12:31:37;3.07;;;1.97;;
10880;SDS011;5493;48.884;8.338;2023-03-14T12:34:27;5.33;;;2.50;;
10880;SDS011;5493;48.884;8.338;2023-03-14T12:36:56;3.67;;;1.57;;
10880;SDS011;5493;48.884;8.338;2023-03-14T12:39:35;9.13;;;4.43;;
10880;SDS011;5493;48.884;8.338;2023-03-14T12:42:11;3.67;;;2.00;;
10880;SDS011;5493;48.884;8.338;2023-03-14T12:44:40;2.03;;;1.53;;
10880;SDS011;5493;48.884;8.338;2023-03-14T12:50:14;3.20;;;2.17;;
10880;SDS011;5493;48.884;8.338;2023-03-14T12:52:50;6.27;;;3.60;;
10880;SDS011;5493;48.884;8.338;2023-03-14T12:55:32;5.13;;;2.50;;
10880;SDS011;5493;48.884;8.338;2023-03-14T12:58:03;1.40;;;1.30;;
10880;SDS011;5493;48.884;8.338;2023-03-14T13:00:38;2.13;;;1.40;;
10880;SDS011;5493;48.884;8.338;2023-03-14T13:03:17;1.43;;;0.80;;
10880;SDS011;5493;48.884;8.338;2023-03-14T13:05:54;3.73;;;1.50;;
10880;SDS011;5493;48.884;8.338;2023-03-14T13:08:33;2.30;;;1.33;;
10880;SDS011;5493;48.884;8.338;2023-03-14T13:11:04;2.10;;;1.60;;
10880;SDS011;5493;48.884;8.338;2023-03-14T13:13:34;1.83;;;0.80;;
10880;SDS011;5493;48.884;8.338;2023-03-14T13:16:02;0.60;;;0.33;;
10880;SDS011;5493;48.884;8.338;2023-03-14T13:18:32;1.97;;;0.80;;
10880;SDS011;5493;48.884;8.338;2023-03-14T13:21:02;0.40;;;0.40;;
10880;SDS011;5493;48.884;8.338;2023-03-14T13:23:32;0.40;;;0.40;;
10880;SDS011;5493;48.884;8.338;2023-03-14T13:26:00;0.43;;;0.30;;
10880;SDS011;5493;48.884;8.338;2023-03-14T13:28:27;2.10;;;0.50;;
10880;SDS011;5493;48.884;8.338;2023-03-14T13:30:57;1.37;;;0.73;;
10880;SDS011;5493;48.884;8.338;2023-03-14T13:33:25;1.23;;;0.57;;
10880;SDS011;5493;48.884;8.338;2023-03-14T13:35:56;0.50;;;0.40;;
10880;SDS011;5493;48.884;8.338;2023-03-14T13:38:24;0.33;;;0.30;;
10880;SDS011;5493;48.884;8.338;2023-03-14T13:40:52;0.97;;;0.50;;
10880;SDS011;5493;48.884;8.338;2023-03-14T13:43:25;0.40;;;0.40;;
10880;SDS011;5493;48.884;8.338;2023-03-14T13:45:56;0.93;;;0.53;;
10880;SDS011;5493;48.884;8.338;2023-03-14T13:48:29;0.73;;;0.60;;
10880;SDS011;5493;48.884;8.338;2023-03-14T13:51:00;2.97;;;0.70;;
10880;SDS011;5493;48.884;8.338;2023-03-14T13:53:29;1.03;;;0.60;;
10880;SDS011;5493;48.884;8.338;2023-03-14T13:55:56;1.77;;;0.90;;
10880;SDS011;5493;48.884;8.338;2023-03-14T13:58:27;2.13;;;0.87;;
10880;SDS011;5493;48.884;8.338;2023-03-14T14:00:57;2.13;;;0.87;;
10880;SDS011;5493;48.884;8.338;2023-03-14T14:03:27;3.57;;;1.00;;
10880;SDS011;5493;48.884;8.338;2023-03-14T14:05:55;2.70;;;1.00;;
10880;SDS011;5493;48.884;8.338;2023-03-14T14:08:24;1.23;;;0.60;;
10880;SDS011;5493;48.884;8.338;2023-03-14T14:10:52;1.57;;;0.67;;
10880;SDS011;5493;48.884;8.338;2023-03-14T14:13:23;1.47;;;0.53;;
10880;SDS011;5493;48.884;8.338;2023-03-14T14:15:52;1.27;;;0.80;;
10880;SDS011;5493;48.884;8.338;2023-03-14T14:18:21;1.37;;;0.50;;
10880;SDS011;5493;48.884;8.338;2023-03-14T14:20:50;1.97;;;0.60;;
10880;SDS011;5493;48.884;8.338;2023-03-14T14:23:17;3.97;;;1.50;;
10880;SDS011;5493;48.884;8.338;2023-03-14T14:25:51;1.87;;;0.80;;
10880;SDS011;5493;48.884;8.338;2023-03-14T14:28:22;2.33;;;0.83;;
10880;SDS011;5493;48.884;8.338;2023-03-14T14:30:59;2.53;;;0.70;;
10880;SDS011;5493;48.884;8.338;2023-03-14T14:33:30;1.97;;;0.70;;
10880;SDS011;5493;48.884;8.338;2023-03-14T14:36:04;1.83;;;0.80;;
10880;SDS011;5493;48.884;8.338;2023-03-14T14:38:39;1.27;;;0.80;;
10880;SDS011;5493;48.884;8.338;2023-03-14T14:41:10;2.23;;;0.90;;
10880;SDS011;5493;48.884;8.338;2023-03-14T14:43:38;4.90;;;0.67;;
10880;SDS011;5493;48.884;8.338;2023-03-14T14:46:06;3.07;;;0.80;;
10880;SDS011;5493;48.884;8.338;2023-03-14T14:48:36;2.37;;;0.63;;
10880;SDS011;5493;48.884;8.338;2023-03-14T14:51:04;2.33;;;0.90;;
10880;SDS011;5493;48.884;8.338;2023-03-14T14:53:35;1.63;;;0.80;;
10880;SDS011;5493;48.884;8.338;2023-03-14T14:56:03;2.03;;;1.20;;
10880;SDS011;5493;48.884;8.338;2023-03-14T14:58:35;1.70;;;0.90;;
10880;SDS011;5493;48.884;8.338;2023-03-14T15:01:07;2.07;;;0.87;;
10880;SDS011;5493;48.884;8.338;2023-03-14T15:03:41;1.43;;;0.70;;
10880;SDS011;5493;48.884;8.338;2023-03-14T15:06:08;0.77;;;0.63;;
10880;SDS011;5493;48.884;8.338;2023-03-14T15:08:38;1.70;;;0.57;;
10880;SDS011;5493;48.884;8.338;2023-03-14T15:11:05;1.87;;;0.60;;
10880;SDS011;5493;48.884;8.338;2023-03-14T15:13:33;1.20;;;0.70;;
10880;SDS011;5493;48.884;8.338;2023-03-14T15:16:00;1.93;;;0.50;;
10880;SDS011;5493;48.884;8.338;2023-03-14T15:18:27;1.07;;;0.80;;
10880;SDS011;5493;48.884;8.338;2023-03-14T15:20:55;4.23;;;1.07;;